<?xml version="1.0" encoding="UTF-8" standalone="no" ?>
<gpx xmlns="http://www.topografix.com/GPX/1/1" creator="MapSource 6.11.6" version="1.1" xmlns:xsi="http://www.w3.org/2001/XMLSchema-instance" xsi:schemaLocation="http://www.topografix.com/GPX/1/1 http://www.topografix.com/GPX/1/1/gpx.xsd">

  <metadata>
    <link href="http://www.garmin.com">
      <text>Garmin International</text>
    </link>
    <time>2009-02-19T18:58:41Z</time>
    <bounds maxlat="50.668667" maxlon="6.434664" minlat="50.651801" minlon="6.393071"/>
  </metadata>

  <trk>
    <name>Schmidter Runde</name>
    <extensions>
      <gpxx:TrackExtension xmlns:gpxx="http://www.garmin.com/xmlschemas/GpxExtensions/v3" xmlns:xsi="http://www.w3.org/2001/XMLSchema-instance" xsi:schemaLocation="http://www.garmin.com/xmlschemas/GpxExtensions/v3 http://www.garmin.com/xmlschemas/GpxExtensions/v3/GpxExtensionsv3.xsd">
        <gpxx:DisplayColor>White</gpxx:DisplayColor>
      </gpxx:TrackExtension>
    </extensions>
    <trkseg>
      <trkpt lat="50.656212" lon="6.413306">
        <ele>441.863000</ele>
        <time>2009-02-19T19:57:16Z</time>
      </trkpt>
      <trkpt lat="50.655996" lon="6.413205">
        <ele>440.902000</ele>
        <time>2009-02-19T19:57:34Z</time>
      </trkpt>
      <trkpt lat="50.655573" lon="6.412890">
        <ele>438.979000</ele>
        <time>2009-02-19T19:58:12Z</time>
      </trkpt>
      <trkpt lat="50.654802" lon="6.413209">
        <ele>435.615000</ele>
        <time>2009-02-19T19:59:16Z</time>
      </trkpt>
      <trkpt lat="50.654401" lon="6.413356">
        <ele>435.134000</ele>
        <time>2009-02-19T19:59:49Z</time>
      </trkpt>
      <trkpt lat="50.654186" lon="6.413476">
        <ele>435.134000</ele>
        <time>2009-02-19T20:00:08Z</time>
      </trkpt>
      <trkpt lat="50.654061" lon="6.413517">
        <ele>436.576000</ele>
        <time>2009-02-19T20:00:18Z</time>
      </trkpt>
      <trkpt lat="50.653598" lon="6.413536">
        <ele>436.095000</ele>
        <time>2009-02-19T20:00:56Z</time>
      </trkpt>
      <trkpt lat="50.653402" lon="6.413369">
        <ele>434.173000</ele>
        <time>2009-02-19T20:01:14Z</time>
      </trkpt>
      <trkpt lat="50.653027" lon="6.412923">
        <ele>430.327000</ele>
        <time>2009-02-19T20:01:52Z</time>
      </trkpt>
      <trkpt lat="50.652246" lon="6.412861">
        <ele>421.675000</ele>
        <time>2009-02-19T20:02:55Z</time>
      </trkpt>
      <trkpt lat="50.652029" lon="6.413320">
        <ele>421.675000</ele>
        <time>2009-02-19T20:03:25Z</time>
      </trkpt>
      <trkpt lat="50.651828" lon="6.413712">
        <ele>419.272000</ele>
        <time>2009-02-19T20:03:50Z</time>
      </trkpt>
      <trkpt lat="50.651801" lon="6.413891">
        <ele>418.311000</ele>
        <time>2009-02-19T20:04:00Z</time>
      </trkpt>
      <trkpt lat="50.651884" lon="6.414032">
        <ele>418.792000</ele>
        <time>2009-02-19T20:04:10Z</time>
      </trkpt>
      <trkpt lat="50.652394" lon="6.414472">
        <ele>415.427000</ele>
        <time>2009-02-19T20:04:57Z</time>
      </trkpt>
      <trkpt lat="50.652965" lon="6.414962">
        <ele>415.907000</ele>
        <time>2009-02-19T20:05:49Z</time>
      </trkpt>
      <trkpt lat="50.653235" lon="6.415294">
        <ele>414.465000</ele>
        <time>2009-02-19T20:06:17Z</time>
      </trkpt>
      <trkpt lat="50.653717" lon="6.416054">
        <ele>409.178000</ele>
        <time>2009-02-19T20:07:12Z</time>
      </trkpt>
      <trkpt lat="50.653835" lon="6.416355">
        <ele>409.659000</ele>
        <time>2009-02-19T20:07:31Z</time>
      </trkpt>
      <trkpt lat="50.653911" lon="6.417496">
        <ele>410.620000</ele>
        <time>2009-02-19T20:08:29Z</time>
      </trkpt>
      <trkpt lat="50.653865" lon="6.417812">
        <ele>410.620000</ele>
        <time>2009-02-19T20:08:46Z</time>
      </trkpt>
      <trkpt lat="50.653653" lon="6.418329">
        <ele>411.582000</ele>
        <time>2009-02-19T20:09:18Z</time>
      </trkpt>
      <trkpt lat="50.653444" lon="6.418670">
        <ele>410.620000</ele>
        <time>2009-02-19T20:09:42Z</time>
      </trkpt>
      <trkpt lat="50.653314" lon="6.418990">
        <ele>409.659000</ele>
        <time>2009-02-19T20:10:01Z</time>
      </trkpt>
      <trkpt lat="50.653294" lon="6.419119">
        <ele>409.178000</ele>
        <time>2009-02-19T20:10:08Z</time>
      </trkpt>
      <trkpt lat="50.653162" lon="6.419571">
        <ele>410.140000</ele>
        <time>2009-02-19T20:10:34Z</time>
      </trkpt>
      <trkpt lat="50.653115" lon="6.420754">
        <ele>415.427000</ele>
        <time>2009-02-19T20:11:35Z</time>
      </trkpt>
      <trkpt lat="50.653012" lon="6.421457">
        <ele>414.465000</ele>
        <time>2009-02-19T20:12:12Z</time>
      </trkpt>
      <trkpt lat="50.652964" lon="6.421919">
        <ele>416.869000</ele>
        <time>2009-02-19T20:12:36Z</time>
      </trkpt>
      <trkpt lat="50.652881" lon="6.422221">
        <ele>418.311000</ele>
        <time>2009-02-19T20:12:53Z</time>
      </trkpt>
      <trkpt lat="50.652849" lon="6.422457">
        <ele>418.311000</ele>
        <time>2009-02-19T20:13:05Z</time>
      </trkpt>
      <trkpt lat="50.652913" lon="6.422571">
        <ele>418.311000</ele>
        <time>2009-02-19T20:13:13Z</time>
      </trkpt>
      <trkpt lat="50.652940" lon="6.422741">
        <ele>418.311000</ele>
        <time>2009-02-19T20:13:22Z</time>
      </trkpt>
      <trkpt lat="50.652982" lon="6.423493">
        <ele>419.272000</ele>
        <time>2009-02-19T20:14:01Z</time>
      </trkpt>
      <trkpt lat="50.652874" lon="6.423861">
        <ele>417.350000</ele>
        <time>2009-02-19T20:14:21Z</time>
      </trkpt>
      <trkpt lat="50.652393" lon="6.424758">
        <ele>420.714000</ele>
        <time>2009-02-19T20:15:22Z</time>
      </trkpt>
      <trkpt lat="50.652407" lon="6.424857">
        <ele>422.637000</ele>
        <time>2009-02-19T20:15:27Z</time>
      </trkpt>
      <trkpt lat="50.652964" lon="6.424154">
        <ele>424.079000</ele>
        <time>2009-02-19T20:16:25Z</time>
      </trkpt>
      <trkpt lat="50.653044" lon="6.424121">
        <ele>424.079000</ele>
        <time>2009-02-19T20:16:31Z</time>
      </trkpt>
      <trkpt lat="50.653085" lon="6.424624">
        <ele>424.079000</ele>
        <time>2009-02-19T20:16:57Z</time>
      </trkpt>
      <trkpt lat="50.653111" lon="6.424784">
        <ele>424.559000</ele>
        <time>2009-02-19T20:17:06Z</time>
      </trkpt>
      <trkpt lat="50.653506" lon="6.426030">
        <ele>421.195000</ele>
        <time>2009-02-19T20:18:17Z</time>
      </trkpt>
      <trkpt lat="50.653828" lon="6.426819">
        <ele>417.830000</ele>
        <time>2009-02-19T20:19:06Z</time>
      </trkpt>
      <trkpt lat="50.654029" lon="6.427615">
        <ele>416.869000</ele>
        <time>2009-02-19T20:19:50Z</time>
      </trkpt>
      <trkpt lat="50.654188" lon="6.428387">
        <ele>415.907000</ele>
        <time>2009-02-19T20:20:31Z</time>
      </trkpt>
      <trkpt lat="50.654877" lon="6.430422">
        <ele>413.024000</ele>
        <time>2009-02-19T20:22:30Z</time>
      </trkpt>
      <trkpt lat="50.654952" lon="6.430450">
        <ele>413.024000</ele>
        <time>2009-02-19T20:22:36Z</time>
      </trkpt>
      <trkpt lat="50.655168" lon="6.430447">
        <ele>413.504000</ele>
        <time>2009-02-19T20:22:53Z</time>
      </trkpt>
      <trkpt lat="50.655604" lon="6.430423">
        <ele>412.062000</ele>
        <time>2009-02-19T20:23:29Z</time>
      </trkpt>
      <trkpt lat="50.655615" lon="6.431167">
        <ele>410.620000</ele>
        <time>2009-02-19T20:24:07Z</time>
      </trkpt>
      <trkpt lat="50.655618" lon="6.431333">
        <ele>409.659000</ele>
        <time>2009-02-19T20:24:15Z</time>
      </trkpt>
      <trkpt lat="50.655707" lon="6.431454">
        <ele>409.178000</ele>
        <time>2009-02-19T20:24:25Z</time>
      </trkpt>
      <trkpt lat="50.655811" lon="6.431500">
        <ele>409.178000</ele>
        <time>2009-02-19T20:24:34Z</time>
      </trkpt>
      <trkpt lat="50.655952" lon="6.431547">
        <ele>407.256000</ele>
        <time>2009-02-19T20:24:45Z</time>
      </trkpt>
      <trkpt lat="50.656589" lon="6.431791">
        <ele>408.698000</ele>
        <time>2009-02-19T20:25:38Z</time>
      </trkpt>
      <trkpt lat="50.657291" lon="6.432054">
        <ele>407.256000</ele>
        <time>2009-02-19T20:26:37Z</time>
      </trkpt>
      <trkpt lat="50.657755" lon="6.432282">
        <ele>406.775000</ele>
        <time>2009-02-19T20:27:16Z</time>
      </trkpt>
      <trkpt lat="50.658343" lon="6.432734">
        <ele>403.410000</ele>
        <time>2009-02-19T20:28:09Z</time>
      </trkpt>
      <trkpt lat="50.658907" lon="6.433179">
        <ele>401.969000</ele>
        <time>2009-02-19T20:29:00Z</time>
      </trkpt>
      <trkpt lat="50.659753" lon="6.433925">
        <ele>396.201000</ele>
        <time>2009-02-19T20:30:19Z</time>
      </trkpt>
      <trkpt lat="50.659964" lon="6.434011">
        <ele>394.278000</ele>
        <time>2009-02-19T20:30:36Z</time>
      </trkpt>
      <trkpt lat="50.662455" lon="6.434525">
        <ele>377.455000</ele>
        <time>2009-02-19T20:34:00Z</time>
      </trkpt>
      <trkpt lat="50.662769" lon="6.434491">
        <ele>376.494000</ele>
        <time>2009-02-19T20:34:25Z</time>
      </trkpt>
      <trkpt lat="50.663262" lon="6.434400">
        <ele>370.245000</ele>
        <time>2009-02-19T20:35:05Z</time>
      </trkpt>
      <trkpt lat="50.663790" lon="6.434294">
        <ele>367.361000</ele>
        <time>2009-02-19T20:35:48Z</time>
      </trkpt>
      <trkpt lat="50.664353" lon="6.434239">
        <ele>361.112000</ele>
        <time>2009-02-19T20:36:34Z</time>
      </trkpt>
      <trkpt lat="50.664458" lon="6.434263">
        <ele>359.190000</ele>
        <time>2009-02-19T20:36:43Z</time>
      </trkpt>
      <trkpt lat="50.664675" lon="6.434432">
        <ele>357.267000</ele>
        <time>2009-02-19T20:37:02Z</time>
      </trkpt>
      <trkpt lat="50.664982" lon="6.434598">
        <ele>354.383000</ele>
        <time>2009-02-19T20:37:29Z</time>
      </trkpt>
      <trkpt lat="50.665317" lon="6.434664">
        <ele>350.538000</ele>
        <time>2009-02-19T20:37:56Z</time>
      </trkpt>
      <trkpt lat="50.665759" lon="6.434545">
        <ele>350.538000</ele>
        <time>2009-02-19T20:38:32Z</time>
      </trkpt>
      <trkpt lat="50.665934" lon="6.434365">
        <ele>350.538000</ele>
        <time>2009-02-19T20:38:49Z</time>
      </trkpt>
      <trkpt lat="50.666030" lon="6.434358">
        <ele>350.538000</ele>
        <time>2009-02-19T20:38:57Z</time>
      </trkpt>
      <trkpt lat="50.666379" lon="6.434367">
        <ele>347.654000</ele>
        <time>2009-02-19T20:39:25Z</time>
      </trkpt>
      <trkpt lat="50.666578" lon="6.434194">
        <ele>345.251000</ele>
        <time>2009-02-19T20:39:44Z</time>
      </trkpt>
      <trkpt lat="50.666831" lon="6.433619">
        <ele>339.963000</ele>
        <time>2009-02-19T20:40:20Z</time>
      </trkpt>
      <trkpt lat="50.666917" lon="6.433506">
        <ele>337.560000</ele>
        <time>2009-02-19T20:40:29Z</time>
      </trkpt>
      <trkpt lat="50.667224" lon="6.433258">
        <ele>333.715000</ele>
        <time>2009-02-19T20:40:56Z</time>
      </trkpt>
      <trkpt lat="50.667390" lon="6.433077">
        <ele>330.831000</ele>
        <time>2009-02-19T20:41:13Z</time>
      </trkpt>
      <trkpt lat="50.667441" lon="6.432946">
        <ele>329.870000</ele>
        <time>2009-02-19T20:41:21Z</time>
      </trkpt>
      <trkpt lat="50.667400" lon="6.432805">
        <ele>327.947000</ele>
        <time>2009-02-19T20:41:29Z</time>
      </trkpt>
      <trkpt lat="50.667330" lon="6.432695">
        <ele>326.505000</ele>
        <time>2009-02-19T20:41:37Z</time>
      </trkpt>
      <trkpt lat="50.666251" lon="6.430707">
        <ele>319.776000</ele>
        <time>2009-02-19T20:43:51Z</time>
      </trkpt>
      <trkpt lat="50.666338" lon="6.430037">
        <ele>321.218000</ele>
        <time>2009-02-19T20:44:26Z</time>
      </trkpt>
      <trkpt lat="50.666443" lon="6.429936">
        <ele>321.218000</ele>
        <time>2009-02-19T20:44:36Z</time>
      </trkpt>
      <trkpt lat="50.666557" lon="6.429961">
        <ele>322.660000</ele>
        <time>2009-02-19T20:44:45Z</time>
      </trkpt>
      <trkpt lat="50.666685" lon="6.430026">
        <ele>324.582000</ele>
        <time>2009-02-19T20:44:56Z</time>
      </trkpt>
      <trkpt lat="50.666988" lon="6.430144">
        <ele>330.350000</ele>
        <time>2009-02-19T20:45:22Z</time>
      </trkpt>
      <trkpt lat="50.666970" lon="6.429958">
        <ele>331.312000</ele>
        <time>2009-02-19T20:45:31Z</time>
      </trkpt>
      <trkpt lat="50.666905" lon="6.429796">
        <ele>333.234000</ele>
        <time>2009-02-19T20:45:41Z</time>
      </trkpt>
      <trkpt lat="50.666830" lon="6.429470">
        <ele>337.079000</ele>
        <time>2009-02-19T20:45:59Z</time>
      </trkpt>
      <trkpt lat="50.666847" lon="6.429101">
        <ele>340.925000</ele>
        <time>2009-02-19T20:46:18Z</time>
      </trkpt>
      <trkpt lat="50.666883" lon="6.428920">
        <ele>342.367000</ele>
        <time>2009-02-19T20:46:28Z</time>
      </trkpt>
      <trkpt lat="50.666974" lon="6.428761">
        <ele>344.289000</ele>
        <time>2009-02-19T20:46:39Z</time>
      </trkpt>
      <trkpt lat="50.667079" lon="6.428856">
        <ele>346.212000</ele>
        <time>2009-02-19T20:46:48Z</time>
      </trkpt>
      <trkpt lat="50.667240" lon="6.429160">
        <ele>349.096000</ele>
        <time>2009-02-19T20:47:09Z</time>
      </trkpt>
      <trkpt lat="50.667349" lon="6.429243">
        <ele>350.538000</ele>
        <time>2009-02-19T20:47:18Z</time>
      </trkpt>
      <trkpt lat="50.667447" lon="6.429265">
        <ele>352.941000</ele>
        <time>2009-02-19T20:47:26Z</time>
      </trkpt>
      <trkpt lat="50.667508" lon="6.429139">
        <ele>354.864000</ele>
        <time>2009-02-19T20:47:35Z</time>
      </trkpt>
      <trkpt lat="50.667516" lon="6.428962">
        <ele>356.786000</ele>
        <time>2009-02-19T20:47:44Z</time>
      </trkpt>
      <trkpt lat="50.667439" lon="6.428600">
        <ele>358.709000</ele>
        <time>2009-02-19T20:48:03Z</time>
      </trkpt>
      <trkpt lat="50.667401" lon="6.428159">
        <ele>362.554000</ele>
        <time>2009-02-19T20:48:26Z</time>
      </trkpt>
      <trkpt lat="50.667447" lon="6.427656">
        <ele>364.958000</ele>
        <time>2009-02-19T20:48:52Z</time>
      </trkpt>
      <trkpt lat="50.667637" lon="6.426811">
        <ele>370.726000</ele>
        <time>2009-02-19T20:49:38Z</time>
      </trkpt>
      <trkpt lat="50.667892" lon="6.426103">
        <ele>375.052000</ele>
        <time>2009-02-19T20:50:20Z</time>
      </trkpt>
      <trkpt lat="50.667954" lon="6.425961">
        <ele>374.090000</ele>
        <time>2009-02-19T20:50:29Z</time>
      </trkpt>
      <trkpt lat="50.667967" lon="6.425806">
        <ele>374.090000</ele>
        <time>2009-02-19T20:50:37Z</time>
      </trkpt>
      <trkpt lat="50.667920" lon="6.425680">
        <ele>374.571000</ele>
        <time>2009-02-19T20:50:44Z</time>
      </trkpt>
      <trkpt lat="50.667721" lon="6.425515">
        <ele>374.571000</ele>
        <time>2009-02-19T20:51:03Z</time>
      </trkpt>
      <trkpt lat="50.667572" lon="6.425263">
        <ele>375.532000</ele>
        <time>2009-02-19T20:51:20Z</time>
      </trkpt>
      <trkpt lat="50.667234" lon="6.424817">
        <ele>376.013000</ele>
        <time>2009-02-19T20:51:56Z</time>
      </trkpt>
      <trkpt lat="50.667104" lon="6.424587">
        <ele>376.974000</ele>
        <time>2009-02-19T20:52:12Z</time>
      </trkpt>
      <trkpt lat="50.667041" lon="6.424399">
        <ele>376.974000</ele>
        <time>2009-02-19T20:52:23Z</time>
      </trkpt>
      <trkpt lat="50.666508" lon="6.421918">
        <ele>380.339000</ele>
        <time>2009-02-19T20:54:37Z</time>
      </trkpt>
      <trkpt lat="50.666411" lon="6.421459">
        <ele>382.261000</ele>
        <time>2009-02-19T20:55:02Z</time>
      </trkpt>
      <trkpt lat="50.666246" lon="6.420385">
        <ele>386.587000</ele>
        <time>2009-02-19T20:55:59Z</time>
      </trkpt>
      <trkpt lat="50.666312" lon="6.420241">
        <ele>386.587000</ele>
        <time>2009-02-19T20:56:08Z</time>
      </trkpt>
      <trkpt lat="50.666518" lon="6.419999">
        <ele>385.626000</ele>
        <time>2009-02-19T20:56:29Z</time>
      </trkpt>
      <trkpt lat="50.666599" lon="6.419931">
        <ele>385.626000</ele>
        <time>2009-02-19T20:56:36Z</time>
      </trkpt>
      <trkpt lat="50.666830" lon="6.419827">
        <ele>383.223000</ele>
        <time>2009-02-19T20:56:55Z</time>
      </trkpt>
      <trkpt lat="50.666947" lon="6.419746">
        <ele>382.261000</ele>
        <time>2009-02-19T20:57:06Z</time>
      </trkpt>
      <trkpt lat="50.666985" lon="6.419381">
        <ele>381.300000</ele>
        <time>2009-02-19T20:57:25Z</time>
      </trkpt>
      <trkpt lat="50.666978" lon="6.418682">
        <ele>377.455000</ele>
        <time>2009-02-19T20:58:01Z</time>
      </trkpt>
      <trkpt lat="50.666940" lon="6.417954">
        <ele>377.455000</ele>
        <time>2009-02-19T20:58:38Z</time>
      </trkpt>
      <trkpt lat="50.666999" lon="6.417794">
        <ele>377.455000</ele>
        <time>2009-02-19T20:58:48Z</time>
      </trkpt>
      <trkpt lat="50.667098" lon="6.417709">
        <ele>378.416000</ele>
        <time>2009-02-19T20:58:57Z</time>
      </trkpt>
      <trkpt lat="50.667292" lon="6.417659">
        <ele>377.455000</ele>
        <time>2009-02-19T20:59:13Z</time>
      </trkpt>
      <trkpt lat="50.668023" lon="6.417430">
        <ele>378.897000</ele>
        <time>2009-02-19T21:00:13Z</time>
      </trkpt>
      <trkpt lat="50.668378" lon="6.417223">
        <ele>378.897000</ele>
        <time>2009-02-19T21:00:44Z</time>
      </trkpt>
      <trkpt lat="50.668569" lon="6.417046">
        <ele>378.897000</ele>
        <time>2009-02-19T21:01:02Z</time>
      </trkpt>
      <trkpt lat="50.668531" lon="6.416900">
        <ele>379.858000</ele>
        <time>2009-02-19T21:01:10Z</time>
      </trkpt>
      <trkpt lat="50.668286" lon="6.416609">
        <ele>386.587000</ele>
        <time>2009-02-19T21:01:35Z</time>
      </trkpt>
      <trkpt lat="50.667721" lon="6.415952">
        <ele>397.162000</ele>
        <time>2009-02-19T21:02:31Z</time>
      </trkpt>
      <trkpt lat="50.667068" lon="6.415147">
        <ele>406.294000</ele>
        <time>2009-02-19T21:03:38Z</time>
      </trkpt>
      <trkpt lat="50.666809" lon="6.414783">
        <ele>410.620000</ele>
        <time>2009-02-19T21:04:07Z</time>
      </trkpt>
      <trkpt lat="50.666817" lon="6.413156">
        <ele>408.217000</ele>
        <time>2009-02-19T21:05:30Z</time>
      </trkpt>
      <trkpt lat="50.666785" lon="6.412328">
        <ele>411.582000</ele>
        <time>2009-02-19T21:06:13Z</time>
      </trkpt>
      <trkpt lat="50.666800" lon="6.412166">
        <ele>413.024000</ele>
        <time>2009-02-19T21:06:21Z</time>
      </trkpt>
      <trkpt lat="50.667015" lon="6.411802">
        <ele>411.101000</ele>
        <time>2009-02-19T21:06:47Z</time>
      </trkpt>
      <trkpt lat="50.667235" lon="6.411212">
        <ele>407.736000</ele>
        <time>2009-02-19T21:07:22Z</time>
      </trkpt>
      <trkpt lat="50.667316" lon="6.411062">
        <ele>407.736000</ele>
        <time>2009-02-19T21:07:32Z</time>
      </trkpt>
      <trkpt lat="50.667410" lon="6.410953">
        <ele>405.814000</ele>
        <time>2009-02-19T21:07:41Z</time>
      </trkpt>
      <trkpt lat="50.667523" lon="6.410858">
        <ele>404.372000</ele>
        <time>2009-02-19T21:07:52Z</time>
      </trkpt>
      <trkpt lat="50.667806" lon="6.410725">
        <ele>404.372000</ele>
        <time>2009-02-19T21:08:15Z</time>
      </trkpt>
      <trkpt lat="50.668042" lon="6.410533">
        <ele>402.449000</ele>
        <time>2009-02-19T21:08:37Z</time>
      </trkpt>
      <trkpt lat="50.668235" lon="6.410394">
        <ele>401.969000</ele>
        <time>2009-02-19T21:08:54Z</time>
      </trkpt>
      <trkpt lat="50.668642" lon="6.410175">
        <ele>399.565000</ele>
        <time>2009-02-19T21:09:29Z</time>
      </trkpt>
      <trkpt lat="50.668667" lon="6.410019">
        <ele>400.046000</ele>
        <time>2009-02-19T21:09:37Z</time>
      </trkpt>
      <trkpt lat="50.668498" lon="6.409459">
        <ele>402.930000</ele>
        <time>2009-02-19T21:10:09Z</time>
      </trkpt>
      <trkpt lat="50.668480" lon="6.409275">
        <ele>403.410000</ele>
        <time>2009-02-19T21:10:19Z</time>
      </trkpt>
      <trkpt lat="50.668571" lon="6.408921">
        <ele>401.007000</ele>
        <time>2009-02-19T21:10:38Z</time>
      </trkpt>
      <trkpt lat="50.668530" lon="6.408760">
        <ele>400.526000</ele>
        <time>2009-02-19T21:10:47Z</time>
      </trkpt>
      <trkpt lat="50.667131" lon="6.408396">
        <ele>388.029000</ele>
        <time>2009-02-19T21:12:42Z</time>
      </trkpt>
      <trkpt lat="50.666803" lon="6.408292">
        <ele>388.029000</ele>
        <time>2009-02-19T21:13:09Z</time>
      </trkpt>
      <trkpt lat="50.666366" lon="6.408085">
        <ele>388.029000</ele>
        <time>2009-02-19T21:13:46Z</time>
      </trkpt>
      <trkpt lat="50.666329" lon="6.407941">
        <ele>388.029000</ele>
        <time>2009-02-19T21:13:54Z</time>
      </trkpt>
      <trkpt lat="50.666356" lon="6.407756">
        <ele>387.068000</ele>
        <time>2009-02-19T21:14:04Z</time>
      </trkpt>
      <trkpt lat="50.666433" lon="6.407484">
        <ele>386.107000</ele>
        <time>2009-02-19T21:14:19Z</time>
      </trkpt>
      <trkpt lat="50.666531" lon="6.407404">
        <ele>386.107000</ele>
        <time>2009-02-19T21:14:28Z</time>
      </trkpt>
      <trkpt lat="50.666754" lon="6.407530">
        <ele>387.068000</ele>
        <time>2009-02-19T21:14:47Z</time>
      </trkpt>
      <trkpt lat="50.666904" lon="6.407586">
        <ele>387.549000</ele>
        <time>2009-02-19T21:15:00Z</time>
      </trkpt>
      <trkpt lat="50.667029" lon="6.407573">
        <ele>387.549000</ele>
        <time>2009-02-19T21:15:10Z</time>
      </trkpt>
      <trkpt lat="50.667132" lon="6.407541">
        <ele>387.549000</ele>
        <time>2009-02-19T21:15:18Z</time>
      </trkpt>
      <trkpt lat="50.667227" lon="6.407452">
        <ele>387.068000</ele>
        <time>2009-02-19T21:15:27Z</time>
      </trkpt>
      <trkpt lat="50.667751" lon="6.407174">
        <ele>386.107000</ele>
        <time>2009-02-19T21:16:12Z</time>
      </trkpt>
      <trkpt lat="50.667846" lon="6.407079">
        <ele>385.145000</ele>
        <time>2009-02-19T21:16:21Z</time>
      </trkpt>
      <trkpt lat="50.667915" lon="6.406941">
        <ele>385.626000</ele>
        <time>2009-02-19T21:16:30Z</time>
      </trkpt>
      <trkpt lat="50.667938" lon="6.406795">
        <ele>386.587000</ele>
        <time>2009-02-19T21:16:38Z</time>
      </trkpt>
      <trkpt lat="50.667829" lon="6.406290">
        <ele>391.875000</ele>
        <time>2009-02-19T21:17:05Z</time>
      </trkpt>
      <trkpt lat="50.667775" lon="6.405898">
        <ele>394.759000</ele>
        <time>2009-02-19T21:17:26Z</time>
      </trkpt>
      <trkpt lat="50.667680" lon="6.404724">
        <ele>398.123000</ele>
        <time>2009-02-19T21:18:26Z</time>
      </trkpt>
      <trkpt lat="50.667555" lon="6.404245">
        <ele>401.488000</ele>
        <time>2009-02-19T21:18:53Z</time>
      </trkpt>
      <trkpt lat="50.667353" lon="6.403847">
        <ele>405.814000</ele>
        <time>2009-02-19T21:19:19Z</time>
      </trkpt>
      <trkpt lat="50.667001" lon="6.403295">
        <ele>410.140000</ele>
        <time>2009-02-19T21:19:59Z</time>
      </trkpt>
      <trkpt lat="50.666579" lon="6.402366">
        <ele>413.985000</ele>
        <time>2009-02-19T21:20:58Z</time>
      </trkpt>
      <trkpt lat="50.666134" lon="6.401522">
        <ele>417.830000</ele>
        <time>2009-02-19T21:21:54Z</time>
      </trkpt>
      <trkpt lat="50.665770" lon="6.400757">
        <ele>423.598000</ele>
        <time>2009-02-19T21:22:43Z</time>
      </trkpt>
      <trkpt lat="50.665567" lon="6.400404">
        <ele>426.482000</ele>
        <time>2009-02-19T21:23:08Z</time>
      </trkpt>
      <trkpt lat="50.665072" lon="6.399719">
        <ele>432.731000</ele>
        <time>2009-02-19T21:24:01Z</time>
      </trkpt>
      <trkpt lat="50.664712" lon="6.399221">
        <ele>436.095000</ele>
        <time>2009-02-19T21:24:40Z</time>
      </trkpt>
      <trkpt lat="50.663925" lon="6.398438">
        <ele>443.305000</ele>
        <time>2009-02-19T21:25:55Z</time>
      </trkpt>
      <trkpt lat="50.663729" lon="6.398142">
        <ele>445.228000</ele>
        <time>2009-02-19T21:26:17Z</time>
      </trkpt>
      <trkpt lat="50.663582" lon="6.397886">
        <ele>446.189000</ele>
        <time>2009-02-19T21:26:35Z</time>
      </trkpt>
      <trkpt lat="50.663568" lon="6.397709">
        <ele>446.670000</ele>
        <time>2009-02-19T21:26:44Z</time>
      </trkpt>
      <trkpt lat="50.663579" lon="6.397534">
        <ele>447.150000</ele>
        <time>2009-02-19T21:26:53Z</time>
      </trkpt>
      <trkpt lat="50.663934" lon="6.396121">
        <ele>450.034000</ele>
        <time>2009-02-19T21:28:11Z</time>
      </trkpt>
      <trkpt lat="50.663855" lon="6.395952">
        <ele>450.515000</ele>
        <time>2009-02-19T21:28:22Z</time>
      </trkpt>
      <trkpt lat="50.663282" lon="6.395360">
        <ele>453.880000</ele>
        <time>2009-02-19T21:29:17Z</time>
      </trkpt>
      <trkpt lat="50.662701" lon="6.394821">
        <ele>459.648000</ele>
        <time>2009-02-19T21:30:12Z</time>
      </trkpt>
      <trkpt lat="50.662003" lon="6.394096">
        <ele>464.935000</ele>
        <time>2009-02-19T21:31:20Z</time>
      </trkpt>
      <trkpt lat="50.661576" lon="6.393799">
        <ele>467.819000</ele>
        <time>2009-02-19T21:31:57Z</time>
      </trkpt>
      <trkpt lat="50.661029" lon="6.393451">
        <ele>469.261000</ele>
        <time>2009-02-19T21:32:45Z</time>
      </trkpt>
      <trkpt lat="50.660366" lon="6.393071">
        <ele>470.222000</ele>
        <time>2009-02-19T21:33:42Z</time>
      </trkpt>
      <trkpt lat="50.660242" lon="6.393112">
        <ele>470.703000</ele>
        <time>2009-02-19T21:33:52Z</time>
      </trkpt>
      <trkpt lat="50.659969" lon="6.393324">
        <ele>471.664000</ele>
        <time>2009-02-19T21:34:17Z</time>
      </trkpt>
      <trkpt lat="50.659623" lon="6.393618">
        <ele>473.106000</ele>
        <time>2009-02-19T21:34:49Z</time>
      </trkpt>
      <trkpt lat="50.659020" lon="6.394102">
        <ele>477.912000</ele>
        <time>2009-02-19T21:35:44Z</time>
      </trkpt>
      <trkpt lat="50.658558" lon="6.394488">
        <ele>480.316000</ele>
        <time>2009-02-19T21:36:26Z</time>
      </trkpt>
      <trkpt lat="50.658212" lon="6.394819">
        <ele>482.239000</ele>
        <time>2009-02-19T21:36:59Z</time>
      </trkpt>
      <trkpt lat="50.658055" lon="6.395020">
        <ele>482.719000</ele>
        <time>2009-02-19T21:37:15Z</time>
      </trkpt>
      <trkpt lat="50.657310" lon="6.396107">
        <ele>482.719000</ele>
        <time>2009-02-19T21:38:37Z</time>
      </trkpt>
      <trkpt lat="50.656847" lon="6.396767">
        <ele>479.354000</ele>
        <time>2009-02-19T21:39:28Z</time>
      </trkpt>
      <trkpt lat="50.656658" lon="6.397085">
        <ele>478.393000</ele>
        <time>2009-02-19T21:39:50Z</time>
      </trkpt>
      <trkpt lat="50.656573" lon="6.397185">
        <ele>477.432000</ele>
        <time>2009-02-19T21:39:59Z</time>
      </trkpt>
      <trkpt lat="50.656095" lon="6.397889">
        <ele>475.029000</ele>
        <time>2009-02-19T21:40:52Z</time>
      </trkpt>
      <trkpt lat="50.656013" lon="6.397963">
        <ele>474.067000</ele>
        <time>2009-02-19T21:40:59Z</time>
      </trkpt>
      <trkpt lat="50.655913" lon="6.397983">
        <ele>474.067000</ele>
        <time>2009-02-19T21:41:08Z</time>
      </trkpt>
      <trkpt lat="50.655608" lon="6.397792">
        <ele>472.145000</ele>
        <time>2009-02-19T21:41:34Z</time>
      </trkpt>
      <trkpt lat="50.655193" lon="6.397471">
        <ele>470.222000</ele>
        <time>2009-02-19T21:42:12Z</time>
      </trkpt>
      <trkpt lat="50.655114" lon="6.397524">
        <ele>469.261000</ele>
        <time>2009-02-19T21:42:19Z</time>
      </trkpt>
      <trkpt lat="50.654768" lon="6.398254">
        <ele>460.128000</ele>
        <time>2009-02-19T21:43:05Z</time>
      </trkpt>
      <trkpt lat="50.654635" lon="6.398610">
        <ele>456.764000</ele>
        <time>2009-02-19T21:43:27Z</time>
      </trkpt>
      <trkpt lat="50.654593" lon="6.398826">
        <ele>455.322000</ele>
        <time>2009-02-19T21:43:38Z</time>
      </trkpt>
      <trkpt lat="50.654608" lon="6.399019">
        <ele>454.841000</ele>
        <time>2009-02-19T21:43:48Z</time>
      </trkpt>
      <trkpt lat="50.654707" lon="6.399295">
        <ele>454.360000</ele>
        <time>2009-02-19T21:44:04Z</time>
      </trkpt>
      <trkpt lat="50.654845" lon="6.399574">
        <ele>453.880000</ele>
        <time>2009-02-19T21:44:23Z</time>
      </trkpt>
      <trkpt lat="50.655026" lon="6.399822">
        <ele>454.360000</ele>
        <time>2009-02-19T21:44:42Z</time>
      </trkpt>
      <trkpt lat="50.655292" lon="6.400098">
        <ele>453.880000</ele>
        <time>2009-02-19T21:45:08Z</time>
      </trkpt>
      <trkpt lat="50.655734" lon="6.400397">
        <ele>453.880000</ele>
        <time>2009-02-19T21:45:47Z</time>
      </trkpt>
      <trkpt lat="50.655969" lon="6.400619">
        <ele>454.841000</ele>
        <time>2009-02-19T21:46:09Z</time>
      </trkpt>
      <trkpt lat="50.656196" lon="6.400851">
        <ele>455.802000</ele>
        <time>2009-02-19T21:46:31Z</time>
      </trkpt>
      <trkpt lat="50.656440" lon="6.401189">
        <ele>456.764000</ele>
        <time>2009-02-19T21:46:57Z</time>
      </trkpt>
      <trkpt lat="50.656738" lon="6.401848">
        <ele>458.206000</ele>
        <time>2009-02-19T21:47:39Z</time>
      </trkpt>
      <trkpt lat="50.656881" lon="6.402346">
        <ele>457.725000</ele>
        <time>2009-02-19T21:48:07Z</time>
      </trkpt>
      <trkpt lat="50.657092" lon="6.403495">
        <ele>457.244000</ele>
        <time>2009-02-19T21:49:08Z</time>
      </trkpt>
      <trkpt lat="50.657149" lon="6.404001">
        <ele>456.764000</ele>
        <time>2009-02-19T21:49:34Z</time>
      </trkpt>
      <trkpt lat="50.657144" lon="6.404386">
        <ele>456.283000</ele>
        <time>2009-02-19T21:49:54Z</time>
      </trkpt>
      <trkpt lat="50.656995" lon="6.405230">
        <ele>453.880000</ele>
        <time>2009-02-19T21:50:39Z</time>
      </trkpt>
      <trkpt lat="50.656746" lon="6.406363">
        <ele>450.996000</ele>
        <time>2009-02-19T21:51:41Z</time>
      </trkpt>
      <trkpt lat="50.656576" lon="6.407268">
        <ele>450.996000</ele>
        <time>2009-02-19T21:52:29Z</time>
      </trkpt>
      <trkpt lat="50.656569" lon="6.407466">
        <ele>450.996000</ele>
        <time>2009-02-19T21:52:39Z</time>
      </trkpt>
      <trkpt lat="50.656596" lon="6.408062">
        <ele>451.476000</ele>
        <time>2009-02-19T21:53:10Z</time>
      </trkpt>
      <trkpt lat="50.656838" lon="6.409356">
        <ele>449.554000</ele>
        <time>2009-02-19T21:54:19Z</time>
      </trkpt>
      <trkpt lat="50.656892" lon="6.409503">
        <ele>449.073000</ele>
        <time>2009-02-19T21:54:28Z</time>
      </trkpt>
      <trkpt lat="50.656899" lon="6.409676">
        <ele>448.112000</ele>
        <time>2009-02-19T21:54:37Z</time>
      </trkpt>
      <trkpt lat="50.656851" lon="6.410176">
        <ele>445.228000</ele>
        <time>2009-02-19T21:55:03Z</time>
      </trkpt>
      <trkpt lat="50.656933" lon="6.411670">
        <ele>437.537000</ele>
        <time>2009-02-19T21:56:20Z</time>
      </trkpt>
      <trkpt lat="50.656889" lon="6.411989">
        <ele>435.615000</ele>
        <time>2009-02-19T21:56:37Z</time>
      </trkpt>
      <trkpt lat="50.656713" lon="6.412835">
        <ele>433.211000</ele>
        <time>2009-02-19T21:57:22Z</time>
      </trkpt>
    </trkseg>
  </trk>

</gpx>
